< < Back
Terminal Aerodrome Forecast


Current Version              Previous Versions:   1  2  3  4  5  6  7  8  9  

Terminal Aerodrome Forecast

375
FTUS42 KCAE 110836 AAA
TAFCAE
TAF AMD
KCAE 110836Z 1109/1206 26005KT P6SM SCT100
     FM111600 27008KT P6SM SCT060 BKN250=



Latest METAR

023
SAUS80 KWBC 111000
MTRCAE
METAR KCAE 110956Z 00000KT 10SM CLR M01/M11 A3018 RMK AO2 SLP219
T10111106


USA.gov is the U.S. government's official web portal to all federal, state and local government web resources and services.